Nome の空港の天気 - METARとTAF

Nome, Nome Airport ( PAOM / OME ) - アメリカ アラスカ州Nome
飛行場実況気象(Metar)
観測時間07/17 00:53 AKDT (07/17 08:53 UTC)
風向・風速西 3m/s
視程10km以上
天気現象
なし
気温8.9℃
湿度73%
気圧1015.3hPa
METARPAOM 170853Z AUTO 28006KT 10SM CLR 09/04 A2998 RMK AO2 SLP153 T00890044 401500044 51007 TSNO
過去の天気等 Google飛行場航空写真 Wunderground天気予報

過去48時間のMETAR

飛行場予報(TAF)
発表時間: 7/16 21:25 AKDT (7/17 05:25 UTC)
予報対象時間: 16日22時 AKDT ~ 17日22時 AKDT
風向・風速西 5m/s
視程10km以上
全天の8割程度の雲 雲底高度 1830m
17日10時 AKDT から
風向・風速南 4m/s
視程10km以上
全天の8割程度の雲 雲底高度 1070m
17日19時 AKDT から
風向・風速南南西 7m/s
視程10km以上
全天を覆う雲 雲底高度 300m
PAOM 170525Z 1706/1806 27009KT P6SM BKN060
FM171800 19008KT P6SM BKN035
FM180300 20013KT P6SM OVC010